Love Boat — OT3861 — position and weather

sailwx.info

Track history (hours):
 
Tides and Currents Weather Stations Pressure Air Temp Water Temp Dewpoint Dewpoint Depression Visibility Wind Speed Wind Dir Waves Ship Positions

Love Boat

Last reported at 2016-Dec-07 05:05 UTC. Time now 2016-Dec-11 02:18 UTC.
Position N 49°25' E 011°04'.

Length 110 m.

Type: Ship. MMSI: 205386190.

Date/timePositionNaut miles runAvg speedWind from/ knotsBaromVisibWave heightAir tempDewpointWater temp
2016-Dec-07 05:05N 49°25' E 011°04'  
2016-Dec-03 09:33N 48°12' E 015°01'4 3.8
2016-Dec-03 08:33N 48°10' E 015°06'6 6.1
2016-Dec-03 07:33N 48°13' E 015°15'66 2.7
2016-Dec-02 07:19N 48°08' E 016°53'2 3.2
2016-Dec-02 06:33N 48°09' E 016°56'3 2.5
2016-Dec-02 05:32N 48°09' E 017°00'3 3.6
2016-Dec-02 04:33N 48°08' E 017°05'5 4.7
2016-Dec-02 03:33N 48°05' E 017°09'0 0.0
2016-Dec-02 02:33N 48°05' E 017°09'0 0.0
2016-Dec-02 01:33N 48°05' E 017°09'0 0.0
2016-Dec-02 00:33N 48°05' E 017°09'0 0.0
2016-Dec-01 23:33N 48°05' E 017°09'0 0.0
2016-Dec-01 22:33N 48°05' E 017°09'0 0.0
2016-Dec-01 21:33N 48°05' E 017°09'0 0.0
2016-Dec-01 20:33N 48°05' E 017°09'0 0.0
2016-Dec-01 19:33N 48°05' E 017°09'0 0.0
2016-Dec-01 18:33N 48°05' E 017°09'0 0.0
2016-Dec-01 17:33N 48°05' E 017°09'3 2.5
2016-Dec-01 16:33N 48°03' E 017°12'8 7.5
2016-Dec-01 15:33N 47°60' E 017°22'8 7.8
2016-Dec-01 14:33N 47°54' E 017°31'4 3.9
2016-Dec-01 13:33N 47°51' E 017°34'63 2.0
2016-Nov-30 05:28N 47°37' E 019°06'3 3.3
2016-Nov-30 04:33N 47°35' E 019°04'0 0.0
2016-Nov-30 03:33N 47°35' E 019°04'0 0.0
2016-Nov-30 02:33N 47°35' E 019°04'0 0.0
2016-Nov-30 01:33N 47°35' E 019°04'0 0.0
2016-Nov-30 00:32N 47°35' E 019°04'0 0.0
2016-Nov-29 23:33N 47°35' E 019°04'0 0.0
2016-Nov-29 22:33N 47°35' E 019°04'0 0.0
2016-Nov-29 21:33N 47°35' E 019°04'5 5.4
2016-Nov-29 20:33N 47°29' E 019°03'6 5.5
2016-Nov-29 19:33N 47°24' E 019°02'4 0.1
2016-Nov-28 11:33N 47°21' E 018°57'9 9.4
2016-Nov-28 10:33N 47°30' E 019°03'60 2.9
2016-Nov-27 13:33N 47°48' E 017°38'6 6.2
2016-Nov-27 12:33N 47°53' E 017°32'8 7.6
2016-Nov-27 11:33N 47°58' E 017°24'9 9.4
2016-Nov-27 10:33N 48°03' E 017°12'9 8.9
2016-Nov-27 09:33N 48°08' E 017°02'  
Track history (hours):
 
Tides and Currents Weather Stations Pressure Air Temp Water Temp Dewpoint Dewpoint Depression Visibility Wind Speed Wind Dir Waves Ship Positions

Love Boat

Last reported at 2016-Dec-07 05:05 UTC. Time now 2016-Dec-11 02:18 UTC.
Position N 49°25' E 011°04'.

Length 110 m.

Type: Ship. MMSI: 205386190.

Date/timePositionNaut miles runAvg speedWind from/ knotsBaromVisibWave heightAir tempDewpointWater temp
2016-Dec-07 05:05N 49°25' E 011°04'  
2016-Dec-03 09:33N 48°12' E 015°01'4 3.8
2016-Dec-03 08:33N 48°10' E 015°06'6 6.1
2016-Dec-03 07:33N 48°13' E 015°15'66 2.7
2016-Dec-02 07:19N 48°08' E 016°53'2 3.2
2016-Dec-02 06:33N 48°09' E 016°56'3 2.5
2016-Dec-02 05:32N 48°09' E 017°00'3 3.6
2016-Dec-02 04:33N 48°08' E 017°05'5 4.7
2016-Dec-02 03:33N 48°05' E 017°09'0 0.0
2016-Dec-02 02:33N 48°05' E 017°09'0 0.0
2016-Dec-02 01:33N 48°05' E 017°09'0 0.0
2016-Dec-02 00:33N 48°05' E 017°09'0 0.0
2016-Dec-01 23:33N 48°05' E 017°09'0 0.0
2016-Dec-01 22:33N 48°05' E 017°09'0 0.0
2016-Dec-01 21:33N 48°05' E 017°09'0 0.0
2016-Dec-01 20:33N 48°05' E 017°09'0 0.0
2016-Dec-01 19:33N 48°05' E 017°09'0 0.0
2016-Dec-01 18:33N 48°05' E 017°09'0 0.0
2016-Dec-01 17:33N 48°05' E 017°09'3 2.5
2016-Dec-01 16:33N 48°03' E 017°12'8 7.5
2016-Dec-01 15:33N 47°60' E 017°22'8 7.8
2016-Dec-01 14:33N 47°54' E 017°31'4 3.9
2016-Dec-01 13:33N 47°51' E 017°34'63 2.0
2016-Nov-30 05:28N 47°37' E 019°06'3 3.3
2016-Nov-30 04:33N 47°35' E 019°04'0 0.0
2016-Nov-30 03:33N 47°35' E 019°04'0 0.0
2016-Nov-30 02:33N 47°35' E 019°04'0 0.0
2016-Nov-30 01:33N 47°35' E 019°04'0 0.0
2016-Nov-30 00:32N 47°35' E 019°04'0 0.0
2016-Nov-29 23:33N 47°35' E 019°04'0 0.0
2016-Nov-29 22:33N 47°35' E 019°04'0 0.0
2016-Nov-29 21:33N 47°35' E 019°04'5 5.4
2016-Nov-29 20:33N 47°29' E 019°03'6 5.5
2016-Nov-29 19:33N 47°24' E 019°02'4 0.1
2016-Nov-28 11:33N 47°21' E 018°57'9 9.4
2016-Nov-28 10:33N 47°30' E 019°03'60 2.9
2016-Nov-27 13:33N 47°48' E 017°38'6 6.2
2016-Nov-27 12:33N 47°53' E 017°32'8 7.6
2016-Nov-27 11:33N 47°58' E 017°24'9 9.4
2016-Nov-27 10:33N 48°03' E 017°12'9 8.9
2016-Nov-27 09:33N 48°08' E 017°02'  

Dump ship's entire track history